createdAt,value
2017-06-08T00:00:17.784Z,13.15
2017-06-08T00:01:17.771Z,13.15
2017-06-08T00:02:18.074Z,13.17
2017-06-08T00:03:18.066Z,13.12
2017-06-08T00:04:17.417Z,13.06
2017-06-08T00:05:17.755Z,13.21
2017-06-08T00:06:17.707Z,13.12
2017-06-08T00:07:17.694Z,13.21
2017-06-08T00:08:17.685Z,13.11
2017-06-08T00:09:17.981Z,13.2
2017-06-08T00:10:17.963Z,13.09
2017-06-08T00:11:17.636Z,13.09
2017-06-08T00:12:17.623Z,13.09
2017-06-08T00:13:17.923Z,13.11
2017-06-08T00:14:17.594Z,13.07
2017-06-08T00:15:17.581Z,13.04
2017-06-08T00:16:17.913Z,13.02
2017-06-08T00:17:17.863Z,13.02
2017-06-08T00:18:17.893Z,13
2017-06-08T00:19:17.213Z,13
2017-06-08T00:20:17.511Z,13.04
2017-06-08T00:21:17.495Z,13.12
2017-06-08T00:22:17.798Z,13.06
2017-06-08T00:23:17.785Z,13.14
2017-06-08T00:24:17.460Z,13.11
2017-06-08T00:25:17.442Z,13.09
2017-06-08T00:26:17.429Z,13.07
2017-06-08T00:27:17.108Z,13.11
2017-06-08T00:28:17.085Z,13.22
2017-06-08T00:29:17.385Z,13.12
2017-06-08T00:30:17.682Z,13.2
2017-06-08T00:31:17.376Z,13.07
2017-06-08T00:32:17.361Z,13.21
2017-06-08T00:33:17.646Z,13.17
2017-06-08T00:34:17.314Z,13.24
2017-06-08T00:35:17.305Z,13.12
2017-06-08T00:36:17.291Z,13.14
2017-06-08T00:37:17.278Z,13.09
2017-06-08T00:38:16.945Z,13.07
2017-06-08T00:39:17.252Z,13.07
2017-06-08T00:40:17.233Z,13.09
2017-06-08T00:41:17.535Z,13.11
2017-06-08T00:42:17.203Z,13.12
2017-06-08T00:43:17.507Z,13.07
2017-06-08T00:44:16.865Z,13.2
2017-06-08T00:45:17.482Z,13.11
2017-06-08T00:46:17.155Z,13.09
2017-06-08T00:47:17.459Z,13.12
2017-06-08T00:48:17.443Z,13.11
2017-06-08T00:49:17.429Z,13.02
2017-06-08T00:50:17.409Z,13.04
2017-06-08T00:51:17.083Z,13.04
2017-06-08T00:52:17.386Z,13.18
2017-06-08T00:53:17.056Z,13.06
2017-06-08T00:54:17.045Z,13.07
2017-06-08T00:55:16.715Z,13.24
2017-06-08T00:56:17.331Z,13.25
2017-06-08T00:57:17.315Z,13.21
2017-06-08T00:58:16.983Z,13.09
2017-06-08T00:59:17.282Z,13.14
2017-06-08T01:00:16.960Z,13.07
2017-06-08T01:01:17.465Z,13.11
2017-06-08T01:02:16.935Z,13.18
2017-06-08T01:03:16.605Z,13.12
2017-06-08T01:04:17.230Z,13.18
2017-06-08T01:05:16.890Z,13.09
2017-06-08T01:06:16.877Z,13.07
2017-06-08T01:07:16.862Z,13.07
2017-06-08T01:08:16.852Z,13.03
2017-06-08T01:09:16.524Z,13.12
2017-06-08T01:10:16.829Z,13.02
2017-06-08T01:11:17.121Z,13.04
2017-06-08T01:12:16.797Z,13.21
2017-06-08T01:13:17.103Z,13.21
2017-06-08T01:14:16.766Z,13.2
2017-06-08T01:15:17.066Z,13.15
2017-06-08T01:16:16.424Z,13.09
2017-06-08T01:17:16.761Z,13.11
2017-06-08T01:18:16.715Z,13.22
2017-06-08T01:19:16.698Z,13.15
2017-06-08T01:20:16.371Z,13.12
2017-06-08T01:21:16.668Z,13.09
2017-06-08T01:22:16.973Z,13.21
2017-06-08T01:23:16.643Z,13.17
2017-06-08T01:24:16.946Z,13.15
2017-06-08T01:25:16.925Z,13.07
2017-06-08T01:26:16.605Z,13.14
2017-06-08T01:27:16.907Z,13.12
2017-06-08T01:28:16.571Z,13.14
2017-06-08T01:29:16.558Z,13.14
2017-06-08T01:30:16.547Z,13.06
2017-06-08T01:31:16.537Z,13.18
2017-06-08T01:32:16.221Z,13.24
2017-06-08T01:33:16.502Z,13.2
2017-06-08T01:34:16.492Z,13.18
2017-06-08T01:35:16.797Z,13.09
2017-06-08T01:36:16.155Z,13.09
2017-06-08T01:37:16.446Z,13.18
2017-06-08T01:38:16.434Z,13.11
2017-06-08T01:39:16.737Z,13.2
2017-06-08T01:40:16.726Z,13.18
2017-06-08T01:41:16.393Z,13.18
2017-06-08T01:42:16.410Z,13.25
2017-06-08T01:43:16.679Z,13.29
2017-06-08T01:44:16.352Z,13.33
2017-06-08T01:45:16.337Z,13.36
2017-06-08T01:46:16.328Z,13.33
2017-06-08T01:47:16.632Z,13.3
2017-06-08T01:48:16.298Z,13.33
2017-06-08T01:49:16.594Z,13.41
2017-06-08T01:50:16.586Z,13.44
2017-06-08T01:51:16.567Z,13.4
2017-06-08T01:52:16.235Z,13.46
2017-06-08T01:53:16.226Z,13.47
2017-06-08T01:54:16.522Z,13.55
2017-06-08T01:55:16.510Z,13.58
2017-06-08T01:56:15.871Z,13.55
2017-06-08T01:57:16.489Z,13.54
2017-06-08T01:58:16.159Z,13.51
2017-06-08T01:59:16.458Z,13.63
2017-06-08T02:00:15.814Z,13.67
2017-06-08T02:01:16.453Z,13.61
2017-06-08T02:02:16.414Z,13.63
2017-06-08T02:03:16.089Z,13.59
2017-06-08T02:04:16.080Z,13.62
2017-06-08T02:05:16.073Z,13.63
2017-06-08T02:06:16.088Z,13.62
2017-06-08T02:07:16.344Z,13.55
2017-06-08T02:08:15.706Z,13.63
2017-06-08T02:09:16.010Z,13.56
2017-06-08T02:10:16.306Z,13.58
2017-06-08T02:11:15.664Z,13.63
2017-06-08T02:12:15.965Z,13.67
2017-06-08T02:13:15.949Z,13.55
2017-06-08T02:14:16.251Z,13.56
2017-06-08T02:15:15.923Z,13.62
2017-06-08T02:16:15.954Z,13.63
2017-06-08T02:17:15.912Z,13.65
2017-06-08T02:18:15.884Z,13.61
2017-06-08T02:19:15.559Z,13.63
2017-06-08T02:20:15.853Z,13.67
2017-06-08T02:21:15.841Z,13.59
2017-06-08T02:22:16.148Z,13.58
2017-06-08T02:23:15.815Z,13.7
2017-06-08T02:24:15.483Z,13.77
2017-06-08T02:25:15.791Z,13.79
2017-06-08T02:26:15.774Z,13.65
2017-06-08T02:27:15.773Z,13.76
2017-06-08T02:28:16.059Z,13.71
2017-06-08T02:29:15.735Z,13.7
2017-06-08T02:30:16.030Z,13.79
2017-06-08T02:31:15.709Z,13.71
2017-06-08T02:32:15.690Z,13.79
2017-06-08T02:33:15.677Z,13.73
2017-06-08T02:34:15.672Z,13.73
2017-06-08T02:35:15.334Z,13.73
2017-06-08T02:36:15.636Z,13.76
2017-06-08T02:37:15.958Z,13.71
2017-06-08T02:38:15.610Z,13.77
2017-06-08T02:39:15.597Z,13.71
2017-06-08T02:40:15.583Z,13.7
2017-06-08T02:41:15.566Z,13.69
2017-06-08T02:42:15.245Z,13.8
2017-06-08T02:43:15.546Z,13.71
2017-06-08T02:44:15.845Z,13.71
2017-06-08T02:45:15.827Z,13.8
2017-06-08T02:46:15.508Z,13.69
2017-06-08T02:47:15.806Z,13.69
2017-06-08T02:48:15.476Z,13.67
2017-06-08T02:49:15.147Z,13.62
2017-06-08T02:50:15.447Z,13.61
2017-06-08T02:51:15.434Z,13.71
2017-06-08T02:52:15.418Z,13.71
2017-06-08T02:53:15.406Z,13.63
2017-06-08T02:54:15.415Z,13.73
2017-06-08T02:55:15.376Z,13.73
2017-06-08T02:56:15.385Z,13.71
2017-06-08T02:57:15.667Z,13.76
2017-06-08T02:58:15.654Z,13.73
2017-06-08T02:59:15.639Z,13.87
2017-06-08T03:00:15.314Z,13.81
2017-06-08T03:01:15.526Z,13.88
2017-06-08T03:02:15.602Z,13.79
2017-06-08T03:03:15.287Z,13.79
2017-06-08T03:04:15.572Z,13.87
2017-06-08T03:05:15.594Z,13.81
2017-06-08T03:06:15.545Z,13.83
2017-06-08T03:07:15.220Z,13.87
2017-06-08T03:08:15.524Z,13.83
2017-06-08T03:09:15.194Z,13.81
2017-06-08T03:10:15.492Z,13.81
2017-06-08T03:11:15.481Z,13.87
2017-06-08T03:12:15.468Z,13.91
2017-06-08T03:13:15.142Z,13.89
2017-06-08T03:14:15.122Z,13.91
2017-06-08T03:15:15.423Z,13.91
2017-06-08T03:16:15.412Z,13.95
2017-06-08T03:17:15.086Z,14.01
2017-06-08T03:18:15.383Z,14.01
2017-06-08T03:19:14.743Z,14.04
2017-06-08T03:20:15.356Z,13.99
2017-06-08T03:21:15.354Z,14.04
2017-06-08T03:22:15.016Z,14.02
2017-06-08T03:23:15.008Z,14.07
2017-06-08T03:24:14.984Z,14.02
2017-06-08T03:25:15.294Z,14.04
2017-06-08T03:26:15.280Z,14.01
2017-06-08T03:27:15.267Z,13.98
2017-06-08T03:28:14.935Z,13.98
2017-06-08T03:29:14.924Z,13.94
2017-06-08T03:30:15.232Z,13.88
2017-06-08T03:31:14.892Z,13.79
2017-06-08T03:32:14.649Z,13.83
2017-06-08T03:33:14.554Z,13.74
2017-06-08T03:34:15.170Z,13.8
2017-06-08T03:35:14.852Z,13.84
2017-06-08T03:36:14.837Z,13.81
2017-06-08T03:37:15.125Z,13.74
2017-06-08T03:38:15.114Z,13.84
2017-06-08T03:39:14.469Z,13.84
2017-06-08T03:40:14.459Z,13.83
2017-06-08T03:41:15.074Z,13.76
2017-06-08T03:42:15.104Z,13.8
2017-06-08T03:43:14.728Z,13.83
2017-06-08T03:44:14.713Z,13.8
2017-06-08T03:45:15.024Z,13.83
2017-06-08T03:46:14.378Z,13.8
2017-06-08T03:47:14.361Z,13.8
2017-06-08T03:48:14.670Z,13.81
2017-06-08T03:49:14.970Z,13.81
2017-06-08T03:50:14.321Z,13.84
2017-06-08T03:51:14.938Z,13.76
2017-06-08T03:52:14.347Z,13.8
2017-06-08T03:53:14.911Z,13.77
2017-06-08T03:54:14.899Z,13.8
2017-06-08T03:55:14.887Z,13.84
2017-06-08T03:56:14.558Z,13.81
2017-06-08T03:57:14.854Z,13.79
2017-06-08T03:58:14.846Z,13.83
2017-06-08T03:59:14.239Z,13.81
2017-06-08T04:00:14.817Z,13.92
2017-06-08T04:01:14.802Z,13.83
2017-06-08T04:02:14.211Z,13.88
2017-06-08T04:03:14.772Z,13.8
2017-06-08T04:04:14.445Z,13.81
2017-06-08T04:05:14.432Z,13.84
2017-06-08T04:06:14.765Z,13.91
2017-06-08T04:07:14.095Z,13.87
2017-06-08T04:08:14.078Z,13.83
2017-06-08T04:09:14.687Z,13.89
2017-06-08T04:10:14.366Z,13.87
2017-06-08T04:11:14.670Z,13.76
2017-06-08T04:12:14.656Z,13.8
2017-06-08T04:13:14.329Z,13.88
2017-06-08T04:14:14.357Z,13.92
2017-06-08T04:15:14.616Z,13.87
2017-06-08T04:16:13.977Z,13.81
2017-06-08T04:17:14.588Z,13.81
2017-06-08T04:18:14.587Z,13.77
2017-06-08T04:19:13.934Z,13.79
2017-06-08T04:20:14.232Z,13.87
2017-06-08T04:21:14.535Z,13.81
2017-06-08T04:22:14.203Z,13.79
2017-06-08T04:23:13.878Z,13.79
2017-06-08T04:24:14.498Z,13.79
2017-06-08T04:25:14.483Z,13.79
2017-06-08T04:26:14.153Z,13.76
2017-06-08T04:27:14.139Z,13.81
2017-06-08T04:28:14.131Z,13.81
2017-06-08T04:29:14.117Z,13.77
2017-06-08T04:30:14.102Z,13.8
2017-06-08T04:31:14.405Z,13.84
2017-06-08T04:32:14.075Z,13.8
2017-06-08T04:33:14.372Z,13.92
2017-06-08T04:34:14.047Z,13.84
2017-06-08T04:35:14.044Z,13.87
2017-06-08T04:36:14.336Z,13.83
2017-06-08T04:37:14.009Z,13.94
2017-06-08T04:38:14.310Z,13.83
2017-06-08T04:39:13.978Z,13.91
2017-06-08T04:40:13.969Z,13.83
2017-06-08T04:41:14.268Z,13.91
2017-06-08T04:42:13.939Z,13.79
2017-06-08T04:43:13.929Z,13.81
2017-06-08T04:44:14.232Z,13.89
2017-06-08T04:45:14.219Z,13.8
2017-06-08T04:46:13.891Z,13.81
2017-06-08T04:47:13.878Z,13.83
2017-06-08T04:48:13.876Z,13.84
2017-06-08T04:49:13.856Z,13.87
2017-06-08T04:50:14.153Z,13.83
2017-06-08T04:51:13.826Z,13.91
2017-06-08T04:52:13.808Z,13.91
2017-06-08T04:53:14.169Z,13.84
2017-06-08T04:54:13.784Z,13.96
2017-06-08T04:55:13.458Z,13.92
2017-06-08T04:56:14.097Z,13.95
2017-06-08T04:57:14.060Z,13.88
2017-06-08T04:58:14.047Z,13.92
2017-06-08T04:59:13.720Z,13.83
2017-06-08T05:00:14.034Z,13.92
2017-06-08T05:01:14.102Z,13.87
2017-06-08T05:02:13.697Z,13.91
2017-06-08T05:03:13.741Z,13.92
2017-06-08T05:04:13.985Z,13.92
2017-06-08T05:05:13.672Z,13.88
2017-06-08T05:06:13.938Z,13.89
2017-06-08T05:07:13.650Z,13.95
2017-06-08T05:08:13.288Z,13.92
2017-06-08T05:09:13.616Z,13.91
2017-06-08T05:10:13.574Z,13.87
2017-06-08T05:11:13.664Z,13.89
2017-06-08T05:12:13.237Z,13.96
2017-06-08T05:13:13.542Z,13.95
2017-06-08T05:14:13.840Z,13.94
2017-06-08T05:15:13.511Z,13.89
2017-06-08T05:16:13.496Z,13.96
2017-06-08T05:17:13.833Z,13.98
2017-06-08T05:18:13.790Z,13.95
2017-06-08T05:19:13.771Z,13.99
2017-06-08T05:20:13.445Z,13.99
2017-06-08T05:21:13.433Z,13.96
2017-06-08T05:22:13.732Z,13.92
2017-06-08T05:23:13.405Z,13.92
2017-06-08T05:24:13.400Z,13.95
2017-06-08T05:25:13.695Z,14.04
2017-06-08T05:26:13.370Z,14.04
2017-06-08T05:27:13.356Z,14.07
2017-06-08T05:28:13.373Z,14.06
2017-06-08T05:29:13.327Z,14.06
2017-06-08T05:30:13.628Z,14.07
2017-06-08T05:31:12.988Z,14.13
2017-06-08T05:32:13.292Z,14.12
2017-06-08T05:33:13.275Z,14.07
2017-06-08T05:34:13.263Z,14.1
2017-06-08T05:35:13.576Z,14.14
2017-06-08T05:36:12.922Z,14.02
2017-06-08T05:37:13.542Z,14.13
2017-06-08T05:38:13.212Z,14.16
2017-06-08T05:39:13.203Z,14.17
2017-06-08T05:40:13.499Z,14.25
2017-06-08T05:41:13.173Z,14.21
2017-06-08T05:42:13.487Z,14.16
2017-06-08T05:43:13.150Z,14.21
2017-06-08T05:44:12.824Z,14.29
2017-06-08T05:45:13.124Z,14.27
2017-06-08T05:46:13.250Z,14.25
2017-06-08T05:47:13.415Z,14.29
2017-06-08T05:48:13.085Z,14.29
2017-06-08T05:49:12.759Z,14.31
2017-06-08T05:50:13.058Z,14.31
2017-06-08T05:51:13.045Z,14.34
2017-06-08T05:52:12.721Z,14.46
2017-06-08T05:53:13.385Z,14.43
2017-06-08T05:54:13.372Z,14.57
2017-06-08T05:55:13.333Z,14.47
2017-06-08T05:56:13.306Z,14.53
2017-06-08T05:57:13.290Z,14.65
2017-06-08T05:58:12.955Z,14.6
2017-06-08T05:59:12.644Z,14.64
2017-06-08T06:00:13.253Z,14.75
2017-06-08T06:01:12.924Z,14.78
2017-06-08T06:02:13.225Z,14.71
2017-06-08T06:03:12.895Z,14.83
2017-06-08T06:04:13.202Z,14.88
2017-06-08T06:05:13.183Z,14.81
2017-06-08T06:06:12.857Z,14.88
2017-06-08T06:07:12.532Z,14.95
2017-06-08T06:08:13.150Z,15.01
2017-06-08T06:09:12.825Z,14.91
2017-06-08T06:10:13.124Z,14.94
2017-06-08T06:11:13.114Z,14.95
2017-06-08T06:12:12.468Z,14.93
2017-06-08T06:13:12.776Z,14.95
2017-06-08T06:14:13.077Z,14.94
2017-06-08T06:15:12.756Z,14.93
2017-06-08T06:16:12.737Z,14.93
2017-06-08T06:17:12.733Z,14.93
2017-06-08T06:18:13.032Z,14.91
2017-06-08T06:19:12.698Z,14.9
2017-06-08T06:20:12.696Z,14.99
2017-06-08T06:21:12.682Z,14.98
2017-06-08T06:22:12.670Z,14.98
2017-06-08T06:23:12.338Z,14.93
2017-06-08T06:24:12.675Z,14.93
2017-06-08T06:25:12.628Z,14.95
2017-06-08T06:26:12.982Z,15.05
2017-06-08T06:27:12.604Z,14.99
2017-06-08T06:28:12.594Z,15.02
2017-06-08T06:29:12.581Z,15.02
2017-06-08T06:30:12.888Z,15.03
2017-06-08T06:31:12.562Z,15.02
2017-06-08T06:32:12.543Z,15.05
2017-06-08T06:33:12.889Z,15.15
2017-06-08T06:34:12.839Z,15.11
2017-06-08T06:35:12.509Z,15.15
2017-06-08T06:36:12.181Z,15.26
2017-06-08T06:37:12.174Z,15.21
2017-06-08T06:38:12.162Z,15.35
2017-06-08T06:39:12.461Z,15.38
2017-06-08T06:40:12.450Z,15.39
2017-06-08T06:41:12.438Z,15.41
2017-06-08T06:42:12.749Z,15.38
2017-06-08T06:43:12.420Z,15.45
2017-06-08T06:44:12.126Z,15.43
2017-06-08T06:45:12.709Z,15.42
2017-06-08T06:46:12.384Z,15.42
2017-06-08T06:47:12.686Z,15.43
2017-06-08T06:48:12.674Z,15.43
2017-06-08T06:49:12.664Z,15.45
2017-06-08T06:50:12.341Z,15.46
2017-06-08T06:51:12.010Z,15.43
2017-06-08T06:52:12.314Z,15.49
2017-06-08T06:53:12.299Z,15.57
2017-06-08T06:54:12.610Z,15.57
2017-06-08T06:55:12.594Z,15.54
2017-06-08T06:56:12.595Z,15.59
2017-06-08T06:57:12.277Z,15.61
2017-06-08T06:58:12.249Z,15.76
2017-06-08T06:59:12.246Z,15.86
2017-06-08T07:00:12.541Z,15.79
2017-06-08T07:01:12.730Z,15.84
2017-06-08T07:02:12.404Z,15.94
2017-06-08T07:03:12.539Z,15.94
2017-06-08T07:04:12.177Z,15.92
2017-06-08T07:05:12.171Z,15.94
2017-06-08T07:06:12.155Z,16.07
2017-06-08T07:07:11.835Z,16.12
2017-06-08T07:08:12.133Z,16.22
2017-06-08T07:09:12.565Z,16.26
2017-06-08T07:10:12.116Z,16.37
2017-06-08T07:11:12.100Z,16.34
2017-06-08T07:12:11.776Z,16.5
2017-06-08T07:13:12.087Z,16.53
2017-06-08T07:14:12.065Z,16.6
2017-06-08T07:15:12.063Z,16.77
2017-06-08T07:16:12.390Z,16.74
2017-06-08T07:17:12.037Z,16.73
2017-06-08T07:18:12.339Z,16.85
2017-06-08T07:19:12.016Z,16.78
2017-06-08T07:20:12.008Z,16.89
2017-06-08T07:21:12.315Z,16.85
2017-06-08T07:22:12.303Z,16.95
2017-06-08T07:23:12.295Z,16.89
2017-06-08T07:24:12.000Z,16.81
2017-06-08T07:25:11.961Z,16.86
2017-06-08T07:26:12.261Z,16.86
2017-06-08T07:27:12.245Z,16.88
2017-06-08T07:28:11.925Z,16.88
2017-06-08T07:29:11.919Z,16.85
2017-06-08T07:30:11.905Z,16.85
2017-06-08T07:31:12.264Z,16.89
2017-06-08T07:32:11.899Z,16.71
2017-06-08T07:33:11.877Z,16.86
2017-06-08T07:34:12.180Z,16.81
2017-06-08T07:35:12.170Z,16.81
2017-06-08T07:36:11.529Z,16.89
2017-06-08T07:37:11.832Z,16.8
2017-06-08T07:38:11.821Z,16.81
2017-06-08T07:39:11.815Z,16.89
2017-06-08T07:40:11.808Z,16.95
2017-06-08T07:41:12.121Z,16.93
2017-06-08T07:42:11.839Z,16.99
2017-06-08T07:43:12.089Z,16.96
2017-06-08T07:44:11.766Z,17.11
2017-06-08T07:45:11.755Z,17.1
2017-06-08T07:46:11.432Z,17.08
2017-06-08T07:47:12.053Z,17.13
2017-06-08T07:48:11.723Z,17.1
2017-06-08T07:49:11.717Z,17.15
2017-06-08T07:50:11.708Z,17.1
2017-06-08T07:51:11.746Z,17.1
2017-06-08T07:52:11.994Z,17.11
2017-06-08T07:53:11.674Z,17.1
2017-06-08T07:54:11.977Z,17.1
2017-06-08T07:55:11.983Z,17.18
2017-06-08T07:56:11.330Z,17.25
2017-06-08T07:57:11.647Z,17.32
2017-06-08T07:58:11.627Z,17.41
2017-06-08T07:59:11.928Z,17.51
2017-06-08T08:00:11.609Z,17.57
2017-06-08T08:01:11.597Z,17.74
2017-06-08T08:02:11.286Z,18.02
2017-06-08T08:03:11.268Z,18.12
2017-06-08T08:04:11.894Z,18.07
2017-06-08T08:05:11.873Z,18.07
2017-06-08T08:06:11.858Z,18
2017-06-08T08:07:11.536Z,17.97
2017-06-08T08:08:11.531Z,17.99
2017-06-08T08:09:11.542Z,18
2017-06-08T08:10:11.828Z,17.97
2017-06-08T08:11:11.507Z,18
2017-06-08T08:12:11.826Z,17.97
2017-06-08T08:13:11.194Z,17.99
2017-06-08T08:14:11.509Z,18.12
2017-06-08T08:15:11.791Z,18.06
2017-06-08T08:16:11.455Z,18.15
2017-06-08T08:17:11.773Z,18.12
2017-06-08T08:18:11.768Z,18.21
2017-06-08T08:19:11.745Z,18.22
2017-06-08T08:20:11.734Z,18.25
2017-06-08T08:21:11.409Z,18.36
2017-06-08T08:22:11.401Z,18.42
2017-06-08T08:23:11.728Z,18.57
2017-06-08T08:24:11.064Z,18.67
2017-06-08T08:25:11.686Z,18.64
2017-06-08T08:26:11.365Z,18.77
2017-06-08T08:27:11.352Z,18.8
2017-06-08T08:28:11.345Z,18.86
2017-06-08T08:29:11.668Z,18.76
2017-06-08T08:30:11.639Z,18.73
2017-06-08T08:31:11.633Z,18.8
2017-06-08T08:32:11.325Z,18.8
2017-06-08T08:33:11.312Z,18.9
2017-06-08T08:34:11.299Z,18.87
2017-06-08T08:35:11.288Z,18.99
2017-06-08T08:36:11.591Z,19.05
2017-06-08T08:37:11.600Z,19.08
2017-06-08T08:38:11.267Z,19.21
2017-06-08T08:39:11.583Z,19.23
2017-06-08T08:40:11.249Z,19.11
2017-06-08T08:41:11.250Z,19.13
2017-06-08T08:42:11.226Z,19.18
2017-06-08T08:43:11.249Z,19.24
2017-06-08T08:44:11.546Z,19.2
2017-06-08T08:45:11.205Z,19.36
2017-06-08T08:46:11.527Z,19.31
2017-06-08T08:47:11.525Z,19.31
2017-06-08T08:48:11.191Z,19.21
2017-06-08T08:49:10.862Z,19.11
2017-06-08T08:50:11.169Z,19.13
2017-06-08T08:51:11.504Z,19.17
2017-06-08T08:52:11.468Z,19.54
2017-06-08T08:53:11.143Z,19.88
2017-06-08T08:54:10.820Z,19.98
2017-06-08T08:55:11.130Z,20.06
2017-06-08T08:56:11.439Z,20.21
2017-06-08T08:57:11.118Z,20.25
2017-06-08T08:58:11.416Z,20.47
2017-06-08T08:59:11.098Z,20.62
2017-06-08T09:00:11.089Z,20.65
2017-06-08T09:01:10.767Z,20.69
2017-06-08T09:02:11.593Z,20.68
2017-06-08T09:03:11.066Z,20.64
2017-06-08T09:04:11.377Z,20.59
2017-06-08T09:05:11.059Z,20.41
2017-06-08T09:06:11.367Z,20.33
2017-06-08T09:07:11.057Z,20.27
2017-06-08T09:08:11.041Z,20.24
2017-06-08T09:09:11.036Z,20.28
2017-06-08T09:10:11.031Z,20.27
2017-06-08T09:11:11.012Z,20.23
2017-06-08T09:12:10.697Z,20.16
2017-06-08T09:13:11.030Z,20.28
2017-06-08T09:14:10.680Z,20.1
2017-06-08T09:15:10.989Z,20.28
2017-06-08T09:16:10.993Z,20.41
2017-06-08T09:17:10.980Z,20.49
2017-06-08T09:18:11.289Z,20.81
2017-06-08T09:19:11.000Z,20.93
2017-06-08T09:20:10.960Z,21.32
2017-06-08T09:21:10.951Z,21.56
2017-06-08T09:22:11.268Z,21.78
2017-06-08T09:23:11.252Z,21.9
2017-06-08T09:24:10.933Z,22.02
2017-06-08T09:25:11.249Z,22.25
2017-06-08T09:26:10.926Z,22.28
2017-06-08T09:27:10.609Z,22.32
2017-06-08T09:28:10.916Z,22.44
2017-06-08T09:29:10.908Z,22.32
2017-06-08T09:30:10.959Z,22.04
2017-06-08T09:31:10.903Z,22.07
2017-06-08T09:32:11.232Z,22.25
2017-06-08T09:33:10.579Z,22.17
2017-06-08T09:34:10.890Z,22.2
2017-06-08T09:35:10.577Z,22.07
2017-06-08T09:36:10.916Z,22.04
2017-06-08T09:37:10.874Z,21.88
2017-06-08T09:38:10.563Z,21.99
2017-06-08T09:39:10.861Z,22.06
2017-06-08T09:40:11.176Z,22.12
2017-06-08T09:41:10.856Z,22.2
2017-06-08T09:42:10.850Z,21.97
2017-06-08T09:43:10.855Z,21.9
2017-06-08T09:44:10.842Z,21.85
2017-06-08T09:45:10.845Z,21.79
2017-06-08T09:46:10.847Z,21.79
2017-06-08T09:47:10.831Z,21.82
2017-06-08T09:48:10.827Z,21.79
2017-06-08T09:49:10.823Z,21.79
2017-06-08T09:50:11.130Z,21.81
2017-06-08T09:51:10.568Z,21.71
2017-06-08T09:52:10.840Z,21.72
2017-06-08T09:53:10.807Z,21.82
2017-06-08T09:54:10.799Z,21.85
2017-06-08T09:55:10.480Z,21.61
2017-06-08T09:56:10.795Z,21.66
2017-06-08T09:57:11.100Z,21.81
2017-06-08T09:58:11.113Z,21.99
2017-06-08T09:59:11.138Z,22.17
2017-06-08T10:00:10.464Z,22.13
2017-06-08T10:01:10.452Z,22.1
2017-06-08T10:02:11.074Z,22.07
2017-06-08T10:03:10.760Z,22.07
2017-06-08T10:04:10.755Z,21.99
2017-06-08T10:05:10.434Z,21.99
2017-06-08T10:06:10.747Z,21.82
2017-06-08T10:07:11.054Z,21.81
2017-06-08T10:08:10.732Z,21.82
2017-06-08T10:09:10.777Z,21.94
2017-06-08T10:10:10.411Z,21.98
2017-06-08T10:11:10.719Z,22.02
2017-06-08T10:12:11.029Z,21.98
2017-06-08T10:13:11.028Z,21.9
2017-06-08T10:14:10.705Z,21.92
2017-06-08T10:15:10.393Z,21.92
2017-06-08T10:16:10.378Z,21.78
2017-06-08T10:17:10.691Z,21.67
2017-06-08T10:18:11.000Z,21.66
2017-06-08T10:19:10.682Z,21.54
2017-06-08T10:20:10.992Z,21.46
2017-06-08T10:21:10.673Z,21.5
2017-06-08T10:22:10.989Z,21.45
2017-06-08T10:23:10.662Z,21.3
2017-06-08T10:24:10.968Z,21.2
2017-06-08T10:25:10.336Z,21.06
2017-06-08T10:26:10.959Z,20.93
2017-06-08T10:27:10.639Z,20.98
2017-06-08T10:28:10.635Z,20.96
2017-06-08T10:29:10.627Z,21.08
2017-06-08T10:30:10.617Z,21.06
2017-06-08T10:31:10.932Z,21.09
2017-06-08T10:32:10.301Z,21.16
2017-06-08T10:33:10.918Z,21.08
2017-06-08T10:34:10.602Z,21.01
2017-06-08T10:35:10.906Z,20.98
2017-06-08T10:36:10.600Z,21.09
2017-06-08T10:37:10.593Z,21.13
2017-06-08T10:38:10.892Z,21.26
2017-06-08T10:39:10.889Z,21.3
2017-06-08T10:40:10.617Z,21.38
2017-06-08T10:41:10.901Z,21.29
2017-06-08T10:42:10.894Z,21.38
2017-06-08T10:43:10.547Z,21.51
2017-06-08T10:44:10.221Z,21.51
2017-06-08T10:45:10.535Z,21.79
2017-06-08T10:46:10.843Z,21.72
2017-06-08T10:47:10.530Z,21.76
2017-06-08T10:48:10.512Z,21.72
2017-06-08T10:49:10.826Z,21.69
2017-06-08T10:50:10.821Z,21.79
2017-06-08T10:51:10.502Z,21.71
2017-06-08T10:52:10.180Z,21.74
2017-06-08T10:53:10.900Z,21.78
2017-06-08T10:54:10.484Z,21.97
2017-06-08T10:55:10.480Z,22.07
2017-06-08T10:56:10.789Z,22.1
2017-06-08T10:57:10.469Z,22.1
2017-06-08T10:58:10.779Z,22.19
2017-06-08T10:59:10.774Z,22.34
2017-06-08T11:00:10.458Z,22.29
2017-06-08T11:01:10.497Z,22.43
2017-06-08T11:02:10.979Z,22.5
2017-06-08T11:03:10.441Z,22.64
2017-06-08T11:04:10.748Z,22.68
2017-06-08T11:05:10.778Z,22.89
2017-06-08T11:06:10.427Z,23.02
2017-06-08T11:07:10.421Z,22.94
2017-06-08T11:08:10.419Z,23.01
2017-06-08T11:09:10.726Z,23.11
2017-06-08T11:10:10.723Z,23.27
2017-06-08T11:11:10.720Z,23.38
2017-06-08T11:12:10.716Z,23.47
2017-06-08T11:13:10.081Z,23.27
2017-06-08T11:14:10.077Z,23.02
2017-06-08T11:15:10.401Z,23.15
2017-06-08T11:16:10.438Z,23.15
2017-06-08T11:17:10.385Z,23.32
2017-06-08T11:18:10.385Z,23.39
2017-06-08T11:19:10.687Z,23.45
2017-06-08T11:20:10.689Z,23.43
2017-06-08T11:21:10.368Z,23.27
2017-06-08T11:22:10.683Z,23.22
2017-06-08T11:23:10.362Z,22.9
2017-06-08T11:24:10.400Z,22.96
2017-06-08T11:25:10.042Z,23.01
2017-06-08T11:26:10.352Z,23.04
2017-06-08T11:27:10.351Z,23.01
2017-06-08T11:28:10.032Z,23.17
2017-06-08T11:29:10.344Z,23.24
2017-06-08T11:30:10.337Z,23.2
2017-06-08T11:31:10.647Z,23.15
2017-06-08T11:32:10.015Z,23.19
2017-06-08T11:33:10.707Z,23.09
2017-06-08T11:34:10.379Z,22.9
2017-06-08T11:35:10.325Z,22.97
2017-06-08T11:36:10.317Z,22.94
2017-06-08T11:37:10.632Z,22.99
2017-06-08T11:38:10.312Z,23.08
2017-06-08T11:39:09.987Z,23.08
2017-06-08T11:40:10.299Z,23.27
2017-06-08T11:41:09.982Z,23.31
2017-06-08T11:42:10.288Z,22.96
2017-06-08T11:43:10.606Z,22.9
2017-06-08T11:44:10.282Z,22.89
2017-06-08T11:45:10.276Z,22.84
2017-06-08T11:46:10.276Z,22.87
2017-06-08T11:47:10.272Z,22.93
2017-06-08T11:48:10.578Z,23.05
2017-06-08T11:49:10.260Z,23.09
2017-06-08T11:50:10.573Z,23.27
2017-06-08T11:51:10.567Z,23.45
2017-06-08T11:52:10.250Z,23.76
2017-06-08T11:53:10.562Z,24.24
2017-06-08T11:54:09.929Z,24.56
2017-06-08T11:55:09.922Z,24.95
2017-06-08T11:56:10.550Z,25.05
2017-06-08T11:57:10.227Z,25.15
2017-06-08T11:58:10.543Z,25.07
2017-06-08T11:59:09.913Z,24.85
2017-06-08T12:00:10.541Z,24.5
2017-06-08T12:01:10.558Z,24.02
2017-06-08T12:02:10.215Z,23.89
2017-06-08T12:03:10.215Z,23.61
2017-06-08T12:04:10.525Z,23.38
2017-06-08T12:05:09.893Z,23.35
2017-06-08T12:06:10.524Z,23.42
2017-06-08T12:07:10.208Z,23.45
2017-06-08T12:08:10.205Z,23.43
2017-06-08T12:09:10.199Z,23.42
2017-06-08T12:10:10.190Z,23.47
2017-06-08T12:11:10.217Z,23.42
2017-06-08T12:12:10.501Z,23.42
2017-06-08T12:13:10.280Z,23.42
2017-06-08T12:14:10.184Z,23.42
2017-06-08T12:15:10.487Z,23.42
2017-06-08T12:16:10.489Z,23.35
2017-06-08T12:17:10.169Z,23.35
2017-06-08T12:18:10.162Z,23.43
2017-06-08T12:19:10.471Z,23.62
2017-06-08T12:20:10.188Z,23.64
2017-06-08T12:21:10.152Z,23.71
2017-06-08T12:22:09.841Z,23.58
2017-06-08T12:23:10.460Z,23.4
2017-06-08T12:24:10.451Z,23.38
2017-06-08T12:25:10.445Z,23.43
2017-06-08T12:26:10.122Z,23.46
2017-06-08T12:27:10.434Z,23.42
2017-06-08T12:28:10.193Z,23.5
2017-06-08T12:29:10.440Z,23.64
2017-06-08T12:30:10.110Z,23.52
2017-06-08T12:31:10.470Z,23.7
2017-06-08T12:32:10.103Z,23.77
2017-06-08T12:33:10.092Z,23.89
2017-06-08T12:34:10.407Z,23.9
2017-06-08T12:35:10.093Z,23.83
2017-06-08T12:36:10.412Z,23.92
2017-06-08T12:37:10.431Z,24.01
2017-06-08T12:38:10.077Z,24.07
2017-06-08T12:39:10.388Z,24.31
2017-06-08T12:40:10.068Z,24.49
2017-06-08T12:41:10.379Z,24.8
2017-06-08T12:42:10.061Z,25.02
2017-06-08T12:43:10.065Z,25.2
2017-06-08T12:44:10.054Z,25.61
2017-06-08T12:45:10.048Z,25.79
2017-06-08T12:46:10.049Z,25.94
2017-06-08T12:47:10.042Z,26.06
2017-06-08T12:48:10.045Z,26.05
2017-06-08T12:49:10.361Z,25.84
2017-06-08T12:50:09.726Z,25.75
2017-06-08T12:51:09.724Z,25.56
2017-06-08T12:52:10.032Z,25.32
2017-06-08T12:53:10.030Z,25.12
2017-06-08T12:54:10.029Z,25.02
2017-06-08T12:55:09.717Z,25.05